Flight Briefing for CPX965

Departure Arrival
Li├Ęge Airport (EBLG)
Click to view FAA NOTAMS
Ramstein Air Force Base (ETAR)
Click to view FAA NOTAMS
Departure Time Arrival Time
N/A N/A
Aircraft Distance
B767-300BDSF 111nm
Departure METAR Arrival METAR
EBLG 221250Z 13003G15KT 070V210 CAVOK 18/02 Q1028 NOSIG ETAR 221256Z AUTO 02011KT 9999 CLR 19/M03 A3036 RMK AO2 SLP290 T01891027 $
Suggested Route
LAREP UN852 DIK


View recent IFR Routes data
Notes
EMPTY | NON-REVENUE REPOSITIONING LEG

Charts and Procedures

Charts for EBLG
No chart available
Charts for ETAR
No chart available

Windy.com Weather Map